Terminal Aerodrome Forecast
Issued by NWS

Home | Current Version | Previous Version | Text Only | Print | Product List | Glossary On
Versions: 1 2 3 4 5 6 7 8 9 10 11 12 13 14 15 16 17
000
FTUS45 KPIH 022300
TAFSUN
TAF
KSUN 022323Z 0300/0324 18010KT P6SM VCSH SCT040 BKN080
     FM030500 33008KT P6SM VCSH SCT080 BKN100
     FM031800 VRB06KT P6SM SCT030 BKN050
      AMD LTD TO CLD VIS AND WIND 0306/0314=

USA.gov is the U.S. government's official web portal to all federal, state and local government web resources and services.